Philadelphia, Pennsylvania
Current Conditions -  °F | °C
As of 12:54 AM on Thursday 23 Oct 2014 (Local Time) from KPHL Reporting Station
Light Rain Light Rain  
Wind Chill: 52°   Ceiling: 4100
Heat Index: 52°   Visibility: 9mi
Dew Point: 47°   Wind: 18mph
Humidity: 83%   Direction: 330°NNW
Pressure: 29.77"   Gusts: NA
Location:  39.95°N, 75.16°W
Report Text: KPHL 230454Z 33016KT 9SM -RA BKN041 OVC049 11/08 A2977 RMK AO2 SLP082 P0002 T01110083 401440111 $
Loading
Personal Weather Stations






























Interactive Weather Map
Tropical Storm Tracking
New forecast layout! Learn more

10-Day Weather Forecast

Advertisements
Track Severe Weather on mobile